Terminal Aerodrome Forecast
Issued by NWS Brownsville, TX

Home | Current Version | Previous Version | Text Only | Print | Product List | Glossary On
Versions: 1 2 3 4 5 6 7 8 9 10 11 12 13
000
FTUS44 KBRO 271733
TAFHRL
TAF
KHRL 271733Z 2718/2818 16016G22KT P6SM SCT050 BKN180
     FM280200 14013KT P6SM FEW030 SCT150 BKN250
     FM280600 15008KT P6SM FEW020 SCT250
     FM281500 14015G20KT P6SM SCT040 BKN150=

USA.gov is the U.S. government's official web portal to all federal, state and local government web resources and services.